Time;durP1;ratioP1;P1;durP2;ratioP2;P2;SDS_P1;SDS_P2;PMS_P1;PMS_P2;Temp;Humidity;BMP_temperature;BMP_pressure;BME280_temperature;BME280_humidity;BME280_pressure;Samples;Min_cycle;Max_cycle;Signal;HPM_P1;HPM_P2
2022/10/31 00:02:05;;;;;;;18.08;12.27;;;12.40;99.90;;;;;;4968877;28;20509;-74
2022/10/31 00:04:31;;;;;;;21.05;13.18;;;12.40;99.90;;;;;;4968306;28;20491;-74
2022/10/31 00:06:56;;;;;;;24.77;14.65;;;12.40;99.90;;;;;;4963333;28;20053;-74
2022/10/31 00:09:22;;;;;;;20.73;13.68;;;12.30;99.90;;;;;;4965462;28;20050;-73
2022/10/31 00:11:47;;;;;;;20.10;13.50;;;12.30;99.90;;;;;;4959860;28;20132;-74
2022/10/31 00:14:13;;;;;;;29.42;15.63;;;12.30;99.90;;;;;;4967759;28;20039;-73
2022/10/31 00:16:40;;;;;;;31.17;14.55;;;12.30;99.90;;;;;;4967319;28;20050;-72
2022/10/31 00:19:07;;;;;;;23.88;13.85;;;12.30;99.90;;;;;;4968543;28;20058;-73
2022/10/31 00:21:33;;;;;;;27.40;15.50;;;12.30;99.90;;;;;;4966833;28;20047;-73
2022/10/31 00:24:00;;;;;;;22.27;15.45;;;12.30;99.90;;;;;;4964343;28;20085;-72
2022/10/31 00:26:30;;;;;;;22.88;14.27;;;12.20;99.90;;;;;;4965432;28;20061;-73
2022/10/31 00:28:56;;;;;;;24.65;13.80;;;12.10;99.90;;;;;;4948920;28;20054;-73
2022/10/31 00:31:22;;;;;;;20.25;13.77;;;12.10;99.90;;;;;;4963861;28;20039;-72
2022/10/31 00:33:47;;;;;;;20.90;14.25;;;12.10;99.90;;;;;;4955463;28;20042;-72
2022/10/31 00:36:15;;;;;;;25.83;14.38;;;12.10;99.90;;;;;;4974815;28;20343;-73
2022/10/31 00:38:45;;;;;;;19.00;13.60;;;12.00;99.90;;;;;;4972563;28;20058;-74
2022/10/31 00:41:13;;;;;;;27.52;16.27;;;12.00;99.90;;;;;;4972501;28;20142;-73
2022/10/31 00:43:39;;;;;;;26.95;18.02;;;12.10;99.90;;;;;;4956345;28;20042;-74
2022/10/31 00:46:04;;;;;;;24.88;14.90;;;12.00;99.90;;;;;;4974083;28;20133;-73
2022/10/31 00:48:30;;;;;;;32.38;15.27;;;12.10;99.90;;;;;;4974658;28;20082;-73
2022/10/31 00:50:56;;;;;;;22.17;15.10;;;12.00;99.90;;;;;;4956567;28;20126;-73
2022/10/31 00:53:22;;;;;;;22.58;15.57;;;12.10;99.90;;;;;;4974761;28;20047;-73
2022/10/31 00:55:48;;;;;;;18.83;14.13;;;12.00;99.90;;;;;;4971962;28;20541;-74
2022/10/31 00:58:13;;;;;;;25.83;16.05;;;11.90;99.90;;;;;;4973518;28;20039;-75
2022/10/31 01:00:39;;;;;;;21.65;15.43;;;11.90;99.90;;;;;;4965868;28;20390;-74
2022/10/31 01:03:05;;;;;;;22.25;14.32;;;11.90;99.90;;;;;;4958210;28;20109;-73
2022/10/31 01:05:31;;;;;;;26.30;18.10;;;11.90;99.90;;;;;;4956469;28;20038;-73
2022/10/31 01:07:56;;;;;;;24.65;16.27;;;11.90;99.90;;;;;;4973663;28;20054;-73
2022/10/31 01:10:22;;;;;;;19.00;14.25;;;11.90;99.90;;;;;;4973559;28;20062;-73
2022/10/31 01:12:49;;;;;;;24.60;15.38;;;11.90;99.90;;;;;;4955392;28;20506;-73
2022/10/31 01:15:20;;;;;;;20.80;15.55;;;11.90;99.90;;;;;;4966895;28;20126;-73
2022/10/31 01:17:46;;;;;;;21.58;13.60;;;11.80;99.90;;;;;;4957987;28;20098;-73
2022/10/31 01:20:14;;;;;;;28.70;14.65;;;11.80;99.90;;;;;;4974166;28;20086;-73
2022/10/31 01:22:40;;;;;;;20.70;14.07;;;11.70;99.90;;;;;;4972859;28;20058;-73
2022/10/31 01:25:07;;;;;;;22.10;14.02;;;11.80;99.90;;;;;;4970000;28;20050;-73
2022/10/31 01:27:33;;;;;;;26.05;15.07;;;11.70;99.90;;;;;;4972263;28;20142;-74
2022/10/31 01:29:59;;;;;;;27.10;16.05;;;11.70;99.90;;;;;;4972596;28;22519;-73
2022/10/31 01:32:24;;;;;;;20.98;14.80;;;11.70;99.90;;;;;;4974649;28;20129;-73
2022/10/31 01:34:50;;;;;;;21.35;14.52;;;11.70;99.90;;;;;;4973977;28;20043;-73
2022/10/31 01:37:16;;;;;;;23.20;16.10;;;11.70;99.90;;;;;;4970811;28;20141;-73
2022/10/31 01:39:42;;;;;;;30.67;15.07;;;11.60;99.90;;;;;;4972921;28;20050;-73
2022/10/31 01:42:17;;;;;;;20.58;15.45;;;11.60;99.90;;;;;;4960544;28;20043;-73
2022/10/31 01:44:42;;;;;;;24.20;14.80;;;11.60;99.90;;;;;;4957163;28;20039;-73
2022/10/31 01:47:16;;;;;;;31.88;17.02;;;11.60;99.90;;;;;;4971805;28;20062;-73
2022/10/31 01:49:46;;;;;;;23.10;16.30;;;11.60;99.90;;;;;;4966096;28;20166;-73
2022/10/31 01:52:29;;;;;;;23.42;15.25;;;11.60;99.90;;;;;;4945971;28;20422;-73
2022/10/31 01:55:04;;;;;;;21.73;14.10;;;11.60;99.90;;;;;;4968694;28;20054;-73
2022/10/31 01:57:33;;;;;;;25.35;16.60;;;11.50;99.90;;;;;;4961484;28;20035;-73
2022/10/31 02:00:02;;;;;;;22.92;15.90;;;11.50;99.90;;;;;;4968069;28;20051;-73
2022/10/31 02:02:30;;;;;;;31.10;17.25;;;11.50;99.90;;;;;;4953427;28;20593;-73
2022/10/31 02:04:56;;;;;;;37.95;16.83;;;11.50;99.90;;;;;;4969034;28;20077;-73
2022/10/31 02:07:27;;;;;;;26.55;15.75;;;11.50;99.90;;;;;;4969575;28;20047;-74
2022/10/31 02:09:55;;;;;;;28.38;17.35;;;11.40;99.90;;;;;;4969055;28;20046;-73
2022/10/31 02:12:21;;;;;;;23.92;18.80;;;11.40;99.90;;;;;;4968976;28;20164;-74
2022/10/31 02:14:47;;;;;;;21.58;15.07;;;11.50;99.90;;;;;;4952385;28;20038;-73
2022/10/31 02:17:13;;;;;;;33.58;16.70;;;11.40;99.90;;;;;;4968758;28;20054;-73
2022/10/31 02:20:14;;;;;;;25.83;15.18;;;11.40;99.90;;;;;;4970335;28;20046;-73
2022/10/31 02:22:54;;;;;;;26.98;17.42;;;11.30;99.90;;;;;;4954922;28;20065;-73
2022/10/31 02:25:55;;;;;;;26.33;16.88;;;11.30;99.90;;;;;;4969514;28;20054;-74
2022/10/31 02:28:46;;;;;;;27.73;17.48;;;11.30;99.90;;;;;;4965441;28;20243;-73
2022/10/31 02:31:35;;;;;;;28.38;16.60;;;11.30;99.90;;;;;;4968051;28;20122;-73
2022/10/31 02:34:21;;;;;;;30.20;16.98;;;11.30;99.90;;;;;;4968513;28;20054;-73
2022/10/31 02:37:08;;;;;;;25.55;16.48;;;11.20;99.90;;;;;;4946238;28;20058;-73
2022/10/31 02:40:05;;;;;;;23.75;16.88;;;11.20;99.90;;;;;;4968871;28;20109;-73
2022/10/31 02:43:12;;;;;;;25.85;15.25;;;11.30;99.90;;;;;;4950630;29;20078;-73
2022/10/31 02:46:13;;;;;;;29.08;15.95;;;11.20;99.90;;;;;;4938685;29;20118;-73
2022/10/31 02:48:41;;;;;;;26.95;16.35;;;11.20;99.90;;;;;;4899769;29;20086;-72
2022/10/31 02:51:09;;;;;;;24.27;15.95;;;11.10;99.90;;;;;;4962866;28;20398;-73
2022/10/31 02:53:36;;;;;;;21.73;14.98;;;11.10;99.90;;;;;;4966800;28;20158;-73
2022/10/31 02:56:12;;;;;;;25.40;17.75;;;11.20;99.90;;;;;;4960472;28;20468;-73
2022/10/31 02:58:51;;;;;;;20.15;15.20;;;11.20;99.90;;;;;;4958954;28;20880;-73
2022/10/31 03:01:43;;;;;;;25.00;14.32;;;11.10;99.90;;;;;;4966218;28;20560;-73
2022/10/31 03:04:12;;;;;;;19.77;14.43;;;11.00;99.90;;;;;;4957833;28;20129;-73
2022/10/31 03:06:53;;;;;;;26.63;15.35;;;11.00;99.90;;;;;;4967086;28;20042;-73
2022/10/31 03:09:47;;;;;;;25.50;15.48;;;11.00;99.90;;;;;;4952192;28;20066;-73
2022/10/31 03:12:31;;;;;;;22.25;16.13;;;11.00;99.90;;;;;;4967203;28;20082;-73
2022/10/31 03:15:13;;;;;;;21.15;16.25;;;11.00;99.90;;;;;;4967039;28;20047;-73
2022/10/31 03:17:56;;;;;;;19.67;15.98;;;10.90;99.90;;;;;;4959496;28;20043;-73
2022/10/31 03:20:28;;;;;;;18.10;13.80;;;11.00;99.90;;;;;;4965436;28;20104;-73
2022/10/31 03:22:55;;;;;;;23.60;13.20;;;11.00;99.90;;;;;;4961398;28;20363;-73
2022/10/31 03:25:22;;;;;;;22.63;15.73;;;10.90;99.90;;;;;;4968395;28;20042;-73
2022/10/31 03:27:49;;;;;;;18.05;12.55;;;10.90;99.90;;;;;;4968189;28;20545;-74
2022/10/31 03:30:15;;;;;;;20.88;14.32;;;10.90;99.90;;;;;;4951263;28;20042;-73
2022/10/31 03:33:01;;;;;;;23.17;14.43;;;10.80;99.90;;;;;;4950557;28;20047;-73
2022/10/31 03:35:28;;;;;;;16.25;13.35;;;10.90;99.90;;;;;;4968165;28;20043;-73
2022/10/31 03:37:56;;;;;;;26.10;14.73;;;10.80;99.90;;;;;;4967231;28;20069;-73
2022/10/31 03:40:25;;;;;;;19.90;12.95;;;10.80;99.90;;;;;;4968329;28;20071;-73
2022/10/31 03:43:07;;;;;;;24.35;14.13;;;10.80;99.90;;;;;;4966551;28;20505;-73
2022/10/31 03:45:36;;;;;;;21.50;14.20;;;10.80;99.90;;;;;;4959648;28;20047;-73
2022/10/31 03:48:02;;;;;;;17.33;12.43;;;10.80;99.90;;;;;;4966547;28;20429;-73
2022/10/31 03:50:54;;;;;;;18.27;12.35;;;10.80;99.90;;;;;;4966988;28;20070;-73
2022/10/31 03:53:31;;;;;;;19.63;14.40;;;10.70;99.90;;;;;;4964218;28;20050;-73
2022/10/31 03:56:07;;;;;;;20.30;14.48;;;10.70;99.90;;;;;;4967671;28;20058;-73
2022/10/31 03:59:07;;;;;;;19.35;13.38;;;10.70;99.90;;;;;;4956413;28;20035;-73
2022/10/31 04:01:35;;;;;;;;;;;10.70;99.90;;;;;;4961818;28;20058;-73
2022/10/31 04:04:02;;;;;;;27.73;14.55;;;10.70;99.90;;;;;;4964845;28;19926;-73
2022/10/31 04:06:29;;;;;;;17.25;12.70;;;10.70;99.90;;;;;;4966091;28;20046;-73
2022/10/31 04:08:59;;;;;;;20.48;13.00;;;10.60;99.90;;;;;;4967812;28;20437;-72
2022/10/31 04:11:30;;;;;;;32.63;14.48;;;10.60;99.90;;;;;;4953015;28;20098;-72
2022/10/31 04:13:58;;;;;;;17.05;13.98;;;10.60;99.90;;;;;;4967565;28;20058;-73
2022/10/31 04:16:24;;;;;;;20.60;13.88;;;10.60;99.90;;;;;;4966054;28;20444;-73
2022/10/31 04:18:50;;;;;;;19.50;14.00;;;10.60;99.90;;;;;;4950876;28;20121;-72
2022/10/31 04:21:16;;;;;;;17.95;12.52;;;10.50;99.90;;;;;;4964839;28;20082;-73
2022/10/31 04:23:42;;;;;;;19.02;14.05;;;10.50;99.90;;;;;;4966218;28;20525;-73
2022/10/31 04:26:11;;;;;;;21.05;13.77;;;10.40;99.90;;;;;;4960349;28;20113;-73
2022/10/31 04:28:37;;;;;;;18.17;13.57;;;10.40;99.90;;;;;;4966223;28;20043;-73
2022/10/31 04:31:02;;;;;;;23.35;13.38;;;10.40;99.90;;;;;;4968378;28;20403;-73
2022/10/31 04:33:28;;;;;;;18.48;13.48;;;10.50;99.90;;;;;;4967420;28;20406;-72
2022/10/31 04:35:54;;;;;;;21.17;14.98;;;10.50;99.90;;;;;;4968440;28;20457;-72
2022/10/31 04:38:19;;;;;;;18.67;14.27;;;10.50;99.90;;;;;;4952633;28;20080;-72
2022/10/31 04:40:45;;;;;;;19.23;13.68;;;10.50;99.90;;;;;;4969373;28;20039;-72
2022/10/31 04:43:11;;;;;;;20.23;15.07;;;10.50;99.90;;;;;;4966510;28;20128;-72
2022/10/31 04:45:37;;;;;;;22.23;14.88;;;10.40;99.90;;;;;;4967923;28;21566;-73
2022/10/31 04:48:03;;;;;;;46.97;14.98;;;10.40;99.90;;;;;;4969499;28;20123;-72
2022/10/31 04:50:28;;;;;;;17.40;13.40;;;10.30;99.90;;;;;;4968455;28;20166;-73
2022/10/31 04:52:54;;;;;;;21.67;14.10;;;10.40;99.90;;;;;;4964259;28;20434;-73
2022/10/31 04:55:20;;;;;;;24.15;15.02;;;10.40;99.90;;;;;;4965417;28;20113;-72
2022/10/31 04:57:48;;;;;;;22.77;14.60;;;10.40;99.90;;;;;;4964794;28;20526;-73
2022/10/31 05:00:16;;;;;;;23.20;15.15;;;10.40;99.90;;;;;;4950316;28;20504;-72
2022/10/31 05:02:47;;;;;;;16.00;13.23;;;10.40;99.90;;;;;;4964347;28;20486;-72
2022/10/31 05:05:17;;;;;;;20.33;15.68;;;10.40;99.90;;;;;;4966728;28;20402;-72
2022/10/31 05:07:44;;;;;;;22.45;15.98;;;10.40;99.90;;;;;;4969863;28;20058;-73
2022/10/31 05:10:12;;;;;;;20.23;15.63;;;10.40;99.90;;;;;;4967470;28;20070;-73
2022/10/31 05:12:44;;;;;;;25.60;16.25;;;10.40;99.90;;;;;;4963298;28;20108;-72
2022/10/31 05:15:10;;;;;;;19.80;14.98;;;10.30;99.90;;;;;;4965469;28;20043;-72
2022/10/31 05:17:36;;;;;;;16.80;14.73;;;10.30;99.90;;;;;;4965629;28;20043;-72
2022/10/31 05:20:01;;;;;;;22.75;14.55;;;10.30;99.90;;;;;;4970769;28;20031;-73
2022/10/31 05:22:27;;;;;;;25.67;16.38;;;10.30;99.90;;;;;;4969255;28;20079;-73
2022/10/31 05:24:52;;;;;;;22.95;15.70;;;10.30;99.90;;;;;;4970615;28;20118;-73
2022/10/31 05:27:18;;;;;;;22.25;15.73;;;10.20;99.90;;;;;;4970858;28;20051;-73
2022/10/31 05:29:44;;;;;;;23.05;16.02;;;10.20;99.90;;;;;;4971071;28;20387;-72
2022/10/31 05:32:09;;;;;;;22.13;15.18;;;10.20;99.90;;;;;;4969841;28;20134;-73
2022/10/31 05:34:35;;;;;;;19.63;14.45;;;10.20;99.90;;;;;;4969178;28;20055;-73
2022/10/31 05:37:01;;;;;;;19.13;14.93;;;10.20;99.90;;;;;;4972574;28;20133;-73
2022/10/31 05:39:26;;;;;;;20.23;14.57;;;10.20;99.90;;;;;;4970994;28;20053;-73
2022/10/31 05:41:52;;;;;;;25.00;15.70;;;10.20;99.90;;;;;;4966404;28;20097;-73
2022/10/31 05:44:17;;;;;;;19.67;15.93;;;10.10;99.90;;;;;;4966567;28;20486;-73
2022/10/31 05:46:43;;;;;;;24.88;16.42;;;10.00;99.90;;;;;;4965564;28;20126;-73
2022/10/31 05:49:08;;;;;;;19.88;14.60;;;9.90;99.90;;;;;;4969986;28;20042;-73
2022/10/31 05:51:34;;;;;;;17.35;14.25;;;9.90;99.90;;;;;;4970094;28;20030;-73
2022/10/31 05:54:00;;;;;;;22.10;16.15;;;10.00;99.90;;;;;;4967495;28;20648;-73
2022/10/31 05:56:25;;;;;;;20.42;14.57;;;10.00;99.90;;;;;;4968673;28;20513;-73
2022/10/31 05:58:51;;;;;;;23.50;15.40;;;10.00;99.90;;;;;;4950373;28;20418;-73
2022/10/31 06:01:16;;;;;;;20.25;14.38;;;10.00;99.90;;;;;;4967422;28;20437;-73
2022/10/31 06:03:42;;;;;;;22.88;16.20;;;10.00;99.90;;;;;;4968775;28;20057;-73
2022/10/31 06:06:08;;;;;;;19.83;15.43;;;10.00;99.90;;;;;;4969832;28;20071;-73
2022/10/31 06:08:33;;;;;;;20.23;14.52;;;10.00;99.90;;;;;;4950192;28;20469;-73
2022/10/31 06:10:59;;;;;;;21.40;15.35;;;10.00;99.90;;;;;;4968839;28;20051;-74
2022/10/31 06:13:25;;;;;;;21.63;16.02;;;9.90;99.90;;;;;;4967290;28;20106;-73
2022/10/31 06:15:50;;;;;;;21.83;16.60;;;10.00;99.90;;;;;;4967624;28;20130;-73
2022/10/31 06:18:16;;;;;;;22.52;15.20;;;10.00;99.90;;;;;;4969384;28;20441;-73
2022/10/31 06:20:41;;;;;;;21.65;17.15;;;9.90;99.90;;;;;;4969068;28;20050;-73
2022/10/31 06:23:07;;;;;;;23.77;16.40;;;9.80;99.90;;;;;;4969401;28;20039;-74
2022/10/31 06:25:33;;;;;;;21.63;16.77;;;9.90;99.90;;;;;;4966283;28;20041;-74
2022/10/31 06:27:58;;;;;;;21.88;16.65;;;9.80;99.90;;;;;;4968900;28;20067;-73
2022/10/31 06:30:25;;;;;;;20.13;15.65;;;9.80;99.90;;;;;;4967122;28;20109;-74
2022/10/31 06:32:50;;;;;;;23.88;14.68;;;9.80;99.90;;;;;;4968114;28;20051;-73
2022/10/31 06:35:16;;;;;;;18.90;15.32;;;9.80;99.90;;;;;;4969191;28;20077;-74
2022/10/31 06:37:42;;;;;;;24.60;15.80;;;9.80;99.90;;;;;;4968040;28;20091;-73
2022/10/31 06:40:08;;;;;;;22.48;15.57;;;9.80;99.90;;;;;;4964398;28;20035;-72
2022/10/31 06:42:34;;;;;;;17.42;14.30;;;9.90;99.90;;;;;;4965990;28;20039;-73
2022/10/31 06:45:00;;;;;;;23.65;16.25;;;9.90;99.90;;;;;;4967007;28;20051;-73
2022/10/31 06:47:25;;;;;;;20.90;16.25;;;9.70;99.90;;;;;;4968963;28;20057;-73
2022/10/31 06:49:51;;;;;;;23.83;16.63;;;9.80;99.90;;;;;;4968414;28;20398;-72
2022/10/31 06:52:16;;;;;;;22.63;16.13;;;9.80;99.90;;;;;;4967069;28;20034;-72
2022/10/31 06:54:42;;;;;;;20.05;16.08;;;9.80;99.90;;;;;;4971295;28;20097;-72
2022/10/31 06:57:07;;;;;;;21.90;15.70;;;9.80;99.90;;;;;;4970043;28;20449;-72
2022/10/31 06:59:33;;;;;;;19.98;16.02;;;9.90;99.90;;;;;;4968063;28;20097;-72
2022/10/31 07:01:59;;;;;;;18.58;14.98;;;9.80;99.90;;;;;;4966824;28;20122;-72
2022/10/31 07:04:24;;;;;;;20.73;16.25;;;9.90;99.90;;;;;;4968059;28;20042;-72
2022/10/31 07:06:52;;;;;;;24.63;17.38;;;9.90;99.90;;;;;;4968583;28;20066;-72
2022/10/31 07:09:18;;;;;;;19.25;15.90;;;9.90;99.90;;;;;;4965305;28;20062;-73
2022/10/31 07:11:43;;;;;;;21.70;16.60;;;9.90;99.90;;;;;;4951825;28;20467;-73
2022/10/31 07:14:09;;;;;;;24.90;17.42;;;9.90;99.90;;;;;;4967798;28;20050;-73
2022/10/31 07:16:35;;;;;;;24.33;16.42;;;9.90;99.90;;;;;;4957285;28;20740;-73
2022/10/31 07:19:00;;;;;;;22.02;18.33;;;9.90;99.90;;;;;;4967288;28;20055;-73
2022/10/31 07:21:26;;;;;;;36.13;18.63;;;9.80;99.90;;;;;;4967173;28;20047;-73
2022/10/31 07:23:51;;;;;;;31.73;20.55;;;9.90;99.90;;;;;;4968304;28;20438;-73
2022/10/31 07:26:17;;;;;;;25.15;16.58;;;9.90;99.90;;;;;;4967548;28;20077;-73
2022/10/31 07:28:42;;;;;;;23.40;17.88;;;9.90;99.90;;;;;;4966706;28;20046;-74
2022/10/31 07:31:08;;;;;;;23.13;16.90;;;10.00;99.90;;;;;;4963479;28;20047;-73
2022/10/31 07:33:34;;;;;;;23.83;16.90;;;10.10;99.90;;;;;;4968496;28;20054;-73
2022/10/31 07:36:00;;;;;;;29.88;19.25;;;10.20;99.90;;;;;;4967333;28;20092;-73
2022/10/31 07:38:25;;;;;;;24.70;19.10;;;10.20;99.90;;;;;;4968099;28;20130;-74
2022/10/31 07:40:52;;;;;;;22.98;17.75;;;10.20;99.90;;;;;;4969037;28;20590;-74
2022/10/31 07:43:18;;;;;;;20.23;16.90;;;10.30;99.90;;;;;;4950963;28;20135;-75
2022/10/31 07:45:48;;;;;;;22.13;17.10;;;10.30;99.90;;;;;;4957999;28;20226;-73
2022/10/31 07:48:14;;;;;;;21.85;15.85;;;10.50;99.90;;;;;;4963695;28;20061;-74
2022/10/31 07:50:39;;;;;;;24.20;17.05;;;10.50;99.90;;;;;;4967775;28;20366;-74
2022/10/31 07:53:10;;;;;;;24.27;17.42;;;10.50;99.90;;;;;;4951087;28;20054;-74
2022/10/31 07:55:37;;;;;;;22.48;17.02;;;10.60;99.90;;;;;;4966665;28;20041;-73
2022/10/31 07:58:09;;;;;;;27.92;17.63;;;10.70;99.90;;;;;;4959195;28;20094;-75
2022/10/31 08:00:35;;;;;;;22.73;17.02;;;10.70;99.90;;;;;;4963428;28;20162;-74
2022/10/31 08:03:05;;;;;;;26.13;17.33;;;10.80;99.90;;;;;;4966751;28;20122;-74
2022/10/31 08:05:32;;;;;;;22.55;17.33;;;10.80;99.90;;;;;;4966160;28;20035;-74
2022/10/31 08:07:58;;;;;;;31.27;17.67;;;10.90;99.90;;;;;;4964334;28;20077;-75
2022/10/31 08:10:25;;;;;;;23.45;16.45;;;11.00;99.90;;;;;;4965751;28;20082;-75
2022/10/31 08:13:07;;;;;;;19.65;14.85;;;11.00;99.90;;;;;;4967270;28;20545;-74
2022/10/31 08:15:36;;;;;;;23.73;15.90;;;11.00;99.90;;;;;;4966883;28;20554;-74
2022/10/31 08:18:03;;;;;;;23.25;17.58;;;11.10;99.90;;;;;;4968830;28;20047;-73
2022/10/31 08:20:28;;;;;;;20.20;15.68;;;11.10;99.90;;;;;;4965100;28;20037;-74
2022/10/31 08:22:59;;;;;;;20.90;16.70;;;11.10;99.90;;;;;;4968219;28;20162;-74
2022/10/31 08:25:26;;;;;;;19.40;16.17;;;11.10;99.90;;;;;;4965554;28;20039;-73
2022/10/31 08:27:53;;;;;;;19.65;16.35;;;11.10;99.90;;;;;;4967389;28;20131;-74
2022/10/31 08:30:25;;;;;;;20.90;14.85;;;11.20;99.90;;;;;;4969571;28;20043;-74
2022/10/31 08:33:17;;;;;;;26.02;16.38;;;11.30;99.90;;;;;;4967293;28;20097;-75
2022/10/31 08:35:44;;;;;;;18.63;14.15;;;11.30;99.90;;;;;;4964651;28;20061;-78
2022/10/31 08:38:11;;;;;;;20.92;14.45;;;11.40;99.90;;;;;;4968529;28;20110;-73
2022/10/31 08:40:37;;;;;;;20.73;14.80;;;11.40;99.90;;;;;;4946041;29;20043;-73
2022/10/31 08:43:21;;;;;;;16.55;14.70;;;11.50;99.90;;;;;;4958558;28;20051;-74
2022/10/31 08:45:50;;;;;;;17.35;14.50;;;11.50;99.90;;;;;;4968113;28;20078;-75
2022/10/31 08:48:17;;;;;;;17.73;14.25;;;11.60;99.90;;;;;;4967397;28;20050;-75
2022/10/31 08:50:44;;;;;;;21.05;16.60;;;11.70;99.90;;;;;;4964483;28;20082;-73
2022/10/31 08:53:12;;;;;;;23.17;15.90;;;11.80;99.90;;;;;;4964774;28;20122;-74
2022/10/31 08:55:39;;;;;;;19.38;15.15;;;11.80;99.90;;;;;;4972745;28;20042;-73
2022/10/31 08:58:07;;;;;;;22.05;15.95;;;11.90;99.90;;;;;;4970825;28;20073;-74
2022/10/31 09:00:34;;;;;;;18.25;14.02;;;12.00;99.90;;;;;;4954509;28;20035;-75
2022/10/31 09:03:10;;;;;;;18.83;14.88;;;12.00;99.90;;;;;;4973218;28;20050;-74
2022/10/31 09:05:36;;;;;;;23.70;15.20;;;12.10;99.90;;;;;;4971095;28;20034;-74
2022/10/31 09:08:04;;;;;;;17.42;14.23;;;12.00;99.90;;;;;;4971011;28;20150;-74
2022/10/31 09:10:30;;;;;;;17.25;14.70;;;12.10;99.90;;;;;;4970839;28;20141;-76
2022/10/31 09:13:09;;;;;;;19.75;14.10;;;12.20;99.90;;;;;;4969776;28;20604;-74
2022/10/31 09:15:38;;;;;;;15.98;14.27;;;12.20;99.90;;;;;;4963961;28;20047;-73
2022/10/31 09:18:07;;;;;;;18.95;15.05;;;12.20;99.90;;;;;;4953661;28;20062;-75
2022/10/31 09:20:35;;;;;;;22.00;15.63;;;12.30;99.90;;;;;;4939762;28;20465;-74
2022/10/31 09:23:04;;;;;;;18.67;14.18;;;12.40;99.90;;;;;;4968911;28;20099;-72
2022/10/31 09:25:30;;;;;;;18.45;14.32;;;12.40;99.90;;;;;;4966056;28;20137;-75
2022/10/31 09:28:00;;;;;;;18.17;16.17;;;12.40;99.90;;;;;;4965537;28;20051;-75
2022/10/31 09:30:27;;;;;;;21.98;15.25;;;12.50;99.90;;;;;;4972566;28;20045;-76
2022/10/31 09:33:00;;;;;;;19.40;15.82;;;12.60;99.90;;;;;;4972613;28;20166;-75
2022/10/31 09:35:26;;;;;;;16.08;13.85;;;12.50;99.90;;;;;;4965362;28;20097;-73
2022/10/31 09:38:00;;;;;;;26.40;14.05;;;12.60;99.90;;;;;;4936556;29;20043;-74
2022/10/31 09:40:41;;;;;;;15.52;13.13;;;12.70;99.90;;;;;;4940842;28;20046;-76
2022/10/31 09:43:15;;;;;;;19.83;15.82;;;12.80;99.90;;;;;;4962469;28;20497;-74
2022/10/31 09:45:46;;;;;;;18.30;13.73;;;12.80;99.90;;;;;;4971662;28;20058;-74
2022/10/31 09:48:23;;;;;;;19.20;13.15;;;12.80;99.90;;;;;;4954628;28;20043;-74
2022/10/31 09:51:05;;;;;;;20.85;13.75;;;12.80;99.90;;;;;;4971869;28;20055;-73
2022/10/31 09:53:59;;;;;;;21.35;14.57;;;12.90;99.90;;;;;;4964609;28;20047;-74
2022/10/31 09:56:26;;;;;;;19.58;13.85;;;13.00;99.90;;;;;;4962165;28;20566;-74
2022/10/31 09:58:58;;;;;;;20.45;12.93;;;13.20;99.90;;;;;;4969640;28;20081;-74
2022/10/31 10:01:34;;;;;;;19.45;13.23;;;13.10;99.90;;;;;;4966460;28;20122;-75
2022/10/31 10:04:30;;;;;;;22.95;15.00;;;13.30;99.90;;;;;;4964868;28;20378;-74
2022/10/31 10:06:56;;;;;;;20.17;15.05;;;13.50;99.90;;;;;;4947971;28;20141;-74
2022/10/31 10:09:25;;;;;;;19.98;16.67;;;13.60;99.90;;;;;;4951831;28;20391;-73
2022/10/31 10:12:16;;;;;;;25.70;17.55;;;13.80;99.90;;;;;;4945045;28;20042;-76
2022/10/31 10:14:41;;;;;;;;;;;13.90;99.90;;;;;;4972047;28;20174;-73
2022/10/31 10:17:25;;;;;;;32.88;18.40;;;14.00;99.90;;;;;;4970227;28;19935;-75
2022/10/31 10:20:27;;;;;;;33.88;19.60;;;14.00;99.90;;;;;;4972529;28;20034;-74
2022/10/31 10:22:59;;;;;;;23.65;19.20;;;14.00;99.90;;;;;;4974296;28;20042;-75
2022/10/31 10:25:42;;;;;;;27.60;18.00;;;14.20;99.90;;;;;;4967171;28;20050;-75
2022/10/31 10:28:39;;;;;;;29.40;20.13;;;14.20;99.90;;;;;;4975215;28;20046;-74
2022/10/31 10:31:28;;;;;;;28.30;20.45;;;14.20;99.90;;;;;;4952211;28;20050;-74
2022/10/31 10:33:54;;;;;;;33.10;21.15;;;14.30;99.90;;;;;;4971586;28;20055;-74
2022/10/31 10:36:34;;;;;;;27.50;20.15;;;14.30;99.90;;;;;;4967972;28;20613;-75
2022/10/31 10:39:05;;;;;;;;;;;14.40;99.90;;;;;;4991932;28;20085;-75
2022/10/31 10:41:32;;;;;;;23.13;17.13;;;14.40;99.90;;;;;;4959704;28;20046;-75
2022/10/31 10:43:58;;;;;;;27.58;18.05;;;14.60;99.90;;;;;;4968878;28;20118;-77
2022/10/31 10:49:36;;;;;;;26.48;16.60;;;14.60;99.90;;;;;;4973401;28;20055;-85
2022/10/31 10:52:19;;;;;;;20.30;14.82;;;14.70;99.90;;;;;;4972632;28;20065;-76
2022/10/31 10:54:51;;;;;;;23.45;17.17;;;14.60;99.90;;;;;;4970921;28;20089;-75
2022/10/31 10:57:34;;;;;;;25.17;16.60;;;14.80;99.90;;;;;;4966008;28;20047;-74
2022/10/31 11:00:03;;;;;;;26.08;16.13;;;14.80;99.90;;;;;;4969440;28;20051;-75
2022/10/31 11:02:32;;;;;;;20.45;14.55;;;14.70;99.90;;;;;;4970350;28;20035;-77
2022/10/31 11:05:00;;;;;;;22.35;15.98;;;14.70;99.90;;;;;;4954895;28;20409;-76
2022/10/31 11:07:37;;;;;;;21.02;13.65;;;14.60;99.90;;;;;;4968906;28;20135;-78
2022/10/31 11:10:13;;;;;;;22.33;15.77;;;14.60;99.90;;;;;;4970930;28;20064;-78
2022/10/31 11:12:40;;;;;;;19.77;13.93;;;14.60;99.90;;;;;;4964044;28;20053;-76
2022/10/31 11:15:18;;;;;;;17.50;13.98;;;14.50;99.90;;;;;;4969934;28;20130;-75
2022/10/31 11:17:52;;;;;;;19.17;13.75;;;14.40;99.90;;;;;;4968556;28;20483;-73
2022/10/31 11:20:17;;;;;;;14.82;12.23;;;14.30;99.90;;;;;;4965076;28;20070;-76
2022/10/31 11:22:45;;;;;;;15.80;11.15;;;14.20;99.90;;;;;;4970022;28;20046;-75
2022/10/31 11:25:22;;;;;;;16.50;10.80;;;14.20;99.90;;;;;;4967640;28;20042;-75
2022/10/31 11:28:02;;;;;;;17.02;11.98;;;14.10;99.90;;;;;;4951129;28;20074;-76
2022/10/31 11:30:29;;;;;;;16.45;13.30;;;14.20;99.90;;;;;;4967135;28;20114;-75
2022/10/31 11:32:56;;;;;;;17.38;11.80;;;14.20;99.90;;;;;;4970461;28;20064;-77
2022/10/31 11:35:23;;;;;;;13.60;12.10;;;14.30;99.90;;;;;;4970443;28;20046;-80
2022/10/31 11:37:53;;;;;;;16.45;11.27;;;14.30;99.90;;;;;;4993119;28;20102;-74
2022/10/31 11:40:22;;;;;;;13.80;9.75;;;14.40;99.90;;;;;;4969679;28;20098;-74
2022/10/31 11:42:49;;;;;;;14.48;10.70;;;14.50;99.90;;;;;;4968996;28;20085;-75
2022/10/31 11:45:18;;;;;;;20.13;11.35;;;14.50;99.90;;;;;;4968498;28;20051;-74
2022/10/31 11:47:50;;;;;;;15.52;9.45;;;14.50;99.90;;;;;;4970036;28;20050;-74
2022/10/31 11:50:21;;;;;;;12.70;8.18;;;14.60;99.90;;;;;;4970144;28;20039;-80
2022/10/31 11:52:48;;;;;;;15.50;8.88;;;14.70;99.90;;;;;;4971351;28;20051;-75
2022/10/31 11:55:18;;;;;;;14.85;9.35;;;14.70;99.90;;;;;;4963713;28;20051;-75
2022/10/31 11:57:50;;;;;;;12.88;9.48;;;14.70;99.90;;;;;;4968559;28;20046;-74
2022/10/31 12:00:33;;;;;;;13.05;8.48;;;14.80;99.90;;;;;;4967096;28;20035;-78
2022/10/31 12:03:23;;;;;;;11.30;8.13;;;14.90;99.90;;;;;;4970113;28;20051;-76
2022/10/31 12:06:00;;;;;;;9.85;8.57;;;14.90;99.90;;;;;;4968144;28;20493;-74
2022/10/31 12:08:29;;;;;;;21.15;9.45;;;14.90;99.90;;;;;;4967482;28;20082;-75
2022/10/31 12:11:18;;;;;;;10.27;8.23;;;14.90;99.90;;;;;;4969244;28;20062;-75
2022/10/31 12:14:05;;;;;;;14.90;9.27;;;14.90;99.90;;;;;;4940273;28;20134;-75
2022/10/31 12:16:42;;;;;;;9.25;7.60;;;14.90;99.90;;;;;;4968369;28;20043;-75
2022/10/31 12:19:19;;;;;;;18.70;8.98;;;14.90;99.90;;;;;;4969770;28;20034;-75
2022/10/31 12:22:09;;;;;;;9.85;6.85;;;14.90;99.90;;;;;;4983032;28;20043;-74
2022/10/31 12:24:59;;;;;;;14.00;7.93;;;15.00;99.90;;;;;;4968399;28;20104;-76
2022/10/31 12:27:40;;;;;;;11.77;8.10;;;14.90;99.90;;;;;;4949944;28;20046;-76
2022/10/31 12:30:18;;;;;;;8.77;7.28;;;14.90;99.90;;;;;;4948113;29;20043;-74
2022/10/31 12:32:52;;;;;;;9.80;5.68;;;14.90;99.90;;;;;;4949042;28;20051;-75
2022/10/31 12:35:27;;;;;;;11.43;6.07;;;14.80;99.90;;;;;;4966561;28;20081;-74
2022/10/31 12:37:52;;;;;;;13.95;6.88;;;14.80;99.90;;;;;;4950797;29;20439;-74
2022/10/31 12:40:33;;;;;;;9.57;7.15;;;14.80;99.90;;;;;;4949773;29;20047;-82
2022/10/31 12:43:36;;;;;;;11.63;8.43;;;14.80;99.90;;;;;;4960147;28;20051;-79
2022/10/31 12:46:04;;;;;;;12.38;8.30;;;14.80;99.90;;;;;;4969377;28;20050;-76
2022/10/31 12:49:18;;;;;;;16.55;10.05;;;14.80;99.90;;;;;;4966049;28;20078;-74
2022/10/31 12:51:58;;;;;;;12.48;8.60;;;14.80;99.90;;;;;;4928853;29;20063;-74
2022/10/31 12:54:44;;;;;;;14.77;8.90;;;14.80;99.90;;;;;;4965283;28;20368;-75